Time;durP1;ratioP1;P1;durP2;ratioP2;P2;SDS_P1;SDS_P2;PMS_P1;PMS_P2;Temp;Humidity;BMP_temperature;BMP_pressure;BME280_temperature;BME280_humidity;BME280_pressure;Samples;Min_cycle;Max_cycle;Signal;HPM_P1;HPM_P2
2021/05/05 00:03:43;;;;;;;;;;;12.50;87.40;;;11.54;59.51;94547.56;10350188;28;2016;-80
2021/05/05 00:08:45;;;;;;;;;;;12.50;87.50;;;11.52;59.95;94550.59;10380142;28;1989;-83
2021/05/05 00:13:47;;;;;;;;;;;12.50;87.50;;;11.51;60.01;94546.28;10375551;28;2426;-80
2021/05/05 00:18:49;;;;;;;;;;;12.50;87.70;;;11.55;59.43;94541.09;10363061;28;2061;-82
2021/05/05 00:23:51;;;;;;;;;;;12.50;87.70;;;11.57;59.23;94533.47;10378189;28;2025;-82
2021/05/05 00:28:56;;;;;;;;;;;12.50;87.50;;;11.50;59.66;94523.16;10369414;28;2043;-82
2021/05/05 00:33:58;;;;;;;;;;;12.50;87.50;;;11.45;59.12;94536.78;10370411;28;2043;-81
2021/05/05 00:39:00;;;;;;;;;;;12.40;87.50;;;11.42;59.30;94529.31;10380492;28;2511;-83
2021/05/05 00:44:02;;;;;;;;;;;12.40;87.70;;;11.30;59.66;94521.81;10383944;28;1944;-83
2021/05/05 00:49:04;;;;;;;;;;;12.30;88.10;;;11.24;60.27;94517.66;10393286;28;2098;-81
2021/05/05 00:54:06;;;;;;;;;;;12.30;88.30;;;11.28;59.88;94510.56;10375997;28;2071;-81
2021/05/05 00:59:08;;;;;;;;;;;12.30;88.70;;;11.26;60.01;94512.78;10357768;28;2047;-83
2021/05/05 01:04:11;;;;;;;;;;;12.30;88.90;;;11.24;60.32;94506.88;10366183;28;3026;-80
2021/05/05 01:09:13;;;;;;;;;;;12.30;89.00;;;11.25;60.65;94505.00;10354453;28;2016;-81
2021/05/05 01:14:16;;;;;;;;;;;12.30;89.20;;;11.21;60.69;94512.91;10349891;28;2631;-82
2021/05/05 01:19:18;;;;;;;;;;;12.20;89.60;;;11.23;60.73;94509.91;10367355;28;2090;-83
2021/05/05 01:24:20;;;;;;;;;;;12.20;89.50;;;11.27;60.88;94508.97;10367485;28;2639;-85
2021/05/05 01:29:22;;;;;;;;;;;12.30;89.70;;;11.23;60.95;94521.44;10361875;28;2051;-81
2021/05/05 01:34:23;;;;;;;;;;;12.20;90.10;;;10.94;63.40;94505.78;10359143;28;2609;-82
2021/05/05 01:39:26;;;;;;;;;;;12.10;92.10;;;10.75;65.15;94513.22;10368755;28;2393;-80
2021/05/05 01:44:28;;;;;;;;;;;11.90;93.90;;;10.69;66.31;94511.75;10346749;28;2108;-80
2021/05/05 01:49:30;;;;;;;;;;;11.70;95.50;;;10.60;67.46;94509.00;10349502;28;2091;-83
2021/05/05 01:54:31;;;;;;;;;;;11.70;96.70;;;10.55;68.16;94509.09;10373229;28;2538;-83
2021/05/05 01:59:34;;;;;;;;;;;11.60;97.80;;;10.58;68.16;94503.13;10347519;28;2084;-82
2021/05/05 02:04:36;;;;;;;;;;;11.60;98.70;;;10.55;68.63;94509.09;10382242;28;1872;-83
2021/05/05 02:09:38;;;;;;;;;;;11.50;99.40;;;10.55;68.94;94493.78;10354945;28;1932;-81
2021/05/05 02:14:40;;;;;;;;;;;11.50;99.90;;;10.55;69.09;94487.59;10356607;28;2540;-81
2021/05/05 02:19:42;;;;;;;;;;;11.50;99.90;;;10.55;69.64;94499.16;10367389;28;2709;-83
2021/05/05 02:24:44;;;;;;;;;;;11.50;99.90;;;10.48;70.09;94487.25;10339403;28;1992;-82
2021/05/05 02:29:46;;;;;;;;;;;11.50;99.90;;;10.42;69.61;94475.03;10348150;28;2070;-82
2021/05/05 02:34:48;;;;;;;;;;;11.50;99.90;;;10.45;69.76;94467.16;10365339;28;1991;-80
2021/05/05 02:39:50;;;;;;;;;;;11.40;99.90;;;10.48;69.27;94457.69;10348242;28;2023;-83
2021/05/05 02:44:53;;;;;;;;;;;11.50;99.90;;;10.43;69.40;94464.00;10346912;28;1973;-82
2021/05/05 02:49:55;;;;;;;;;;;11.50;99.90;;;10.45;69.33;94456.41;10352553;28;2021;-82
2021/05/05 02:54:57;;;;;;;;;;;11.40;99.90;;;10.55;69.43;94450.78;10341102;28;2221;-81
2021/05/05 02:59:59;;;;;;;;;;;11.50;99.90;;;10.54;69.18;94451.09;10368369;28;2034;-82
2021/05/05 03:05:01;;;;;;;;;;;11.50;99.90;;;10.47;72.66;94451.50;10361438;28;2006;-84
2021/05/05 03:10:03;;;;;;;;;;;11.50;99.90;;;10.20;77.18;94449.69;10343780;28;2045;-82
2021/05/05 03:15:06;;;;;;;;;;;11.40;99.90;;;9.87;79.13;94418.78;10338776;28;2804;-80
2021/05/05 03:20:08;;;;;;;;;;;11.10;99.90;;;9.65;81.66;94417.59;10347146;28;2172;-83
2021/05/05 03:25:10;;;;;;;;;;;10.80;99.90;;;9.52;82.32;94405.00;10357903;28;2055;-84
2021/05/05 03:30:12;;;;;;;;;;;10.70;99.90;;;9.50;83.36;94415.25;10349036;28;2017;-83
2021/05/05 03:35:14;;;;;;;;;;;10.60;99.90;;;9.41;83.52;94407.06;10360734;28;2080;-82
2021/05/05 03:40:16;;;;;;;;;;;10.60;99.90;;;9.42;83.06;94410.59;10365021;28;2106;-83
2021/05/05 03:45:18;;;;;;;;;;;10.50;99.90;;;9.36;84.35;94423.28;10345667;28;1985;-81
2021/05/05 03:50:20;;;;;;;;;;;10.40;99.90;;;9.38;84.46;94412.25;10358071;28;2658;-81
2021/05/05 03:55:22;;;;;;;;;;;10.40;99.90;;;9.39;83.90;94414.63;10355182;28;2035;-80
2021/05/05 04:00:24;;;;;;;;;;;10.40;99.90;;;9.34;85.22;94424.66;10341210;28;2588;-81
2021/05/05 04:05:26;;;;;;;;;;;10.40;99.90;;;9.31;85.74;94436.00;10358544;28;2048;-83
2021/05/05 04:10:28;;;;;;;;;;;10.30;99.90;;;9.21;87.06;94423.56;10372718;28;1979;-83
2021/05/05 04:15:30;;;;;;;;;;;10.30;99.90;;;9.02;87.46;94426.34;10397750;28;2516;-83
2021/05/05 04:21:10;;;;;;;;;;;10.10;99.90;;;8.97;87.62;94431.81;10385227;28;2022;-84
2021/05/05 04:26:30;;;;;;;;;;;10.00;99.90;;;8.93;89.52;94453.03;10374134;28;2498;-84
2021/05/05 04:31:32;;;;;;;;;;;9.90;99.90;;;7.41;89.61;94490.00;10390002;28;2063;-84
2021/05/05 04:36:34;;;;;;;;;;;10.70;99.90;;;6.58;90.38;94488.41;10380828;28;2056;-84
2021/05/05 04:41:36;;;;;;;;;;;8.10;99.90;;;6.11;93.76;94521.81;10374327;28;2072;-84
2021/05/05 04:46:38;;;;;;;;;;;7.40;99.90;;;6.04;95.29;94523.97;10396511;28;2317;-81
2021/05/05 04:51:39;;;;;;;;;;;8.10;99.90;;;5.79;94.23;94531.03;10375599;28;2625;-82
2021/05/05 04:56:41;;;;;;;;;;;6.90;99.90;;;5.65;94.60;94543.31;10338967;28;2727;-84
2021/05/05 05:01:43;;;;;;;;;;;6.80;99.90;;;5.51;95.02;94566.28;10348412;28;1985;-83
2021/05/05 05:06:45;;;;;;;;;;;6.50;99.90;;;5.40;94.85;94562.84;10395533;28;2329;-84
2021/05/05 05:11:47;;;;;;;;;;;6.40;99.90;;;5.31;95.43;94597.25;10346303;28;2025;-84
2021/05/05 05:16:49;;;;;;;;;;;7.30;99.90;;;5.32;96.50;94606.84;10396964;28;2495;-82
2021/05/05 05:21:51;;;;;;;;;;;7.10;99.90;;;5.02;94.49;94623.63;10376085;28;2745;-84
2021/05/05 05:26:53;;;;;;;;;;;7.30;99.90;;;5.02;95.82;94625.50;10378434;28;2053;-83
2021/05/05 05:31:55;;;;;;;;;;;6.20;99.90;;;5.08;95.91;94625.22;10362711;28;1933;-84
2021/05/05 05:36:57;;;;;;;;;;;6.20;99.90;;;4.97;96.56;94626.31;10397632;28;2214;-82
2021/05/05 05:41:59;;;;;;;;;;;7.00;99.90;;;4.92;96.39;94618.31;10399246;28;2013;-84
2021/05/05 05:47:01;;;;;;;;;;;5.90;99.90;;;4.65;95.48;94613.25;10390730;28;2353;-84
2021/05/05 05:52:03;;;;;;;;;;;6.70;99.90;;;4.69;96.02;94624.94;10403960;28;1886;-82
2021/05/05 05:57:04;;;;;;;;;;;5.60;99.90;;;4.84;96.32;94626.84;10399589;28;2352;-83
2021/05/05 06:02:06;;;;;;;;;;;5.70;99.90;;;4.92;96.21;94638.84;10390601;28;1727;-85
2021/05/05 06:07:08;;;;;;;;;;;5.70;99.90;;;4.67;95.25;94650.25;10388093;28;2323;-84
2021/05/05 06:12:10;;;;;;;;;;;7.90;99.90;;;4.65;95.17;94669.16;10400724;28;2483;-83
2021/05/05 06:17:13;;;;;;;;;;;6.40;99.90;;;4.61;94.64;94681.38;10405004;28;1904;-81
2021/05/05 06:22:15;;;;;;;;;;;6.60;99.90;;;4.80;95.96;94689.66;10404966;28;1910;-84
2021/05/05 06:27:17;;;;;;;;;;;6.40;99.90;;;4.84;96.24;94717.38;10409387;28;1915;-84
2021/05/05 06:32:19;;;;;;;;;;;6.30;99.90;;;4.78;96.41;94739.72;10396969;28;1923;-84
2021/05/05 06:37:23;;;;;;;;;;;6.20;99.90;;;4.72;96.41;94754.88;10396251;28;2046;-83
2021/05/05 06:42:24;;;;;;;;;;;7.10;99.90;;;4.64;94.47;94755.38;10413087;28;2413;-85
2021/05/05 06:47:26;;;;;;;;;;;5.60;99.90;;;4.43;93.48;94764.34;10389436;28;2360;-84
2021/05/05 06:52:28;;;;;;;;;;;6.00;99.90;;;4.36;94.56;94774.41;10383154;28;2584;-82
2021/05/05 06:57:30;;;;;;;;;;;6.00;99.90;;;4.56;95.93;94758.53;10390428;28;2155;-82
2021/05/05 07:02:32;;;;;;;;;;;5.80;99.90;;;4.72;95.93;94743.44;10364525;28;2040;-83
2021/05/05 07:07:34;;;;;;;;;;;5.50;99.90;;;5.03;95.02;94731.00;10381497;28;1970;-81
2021/05/05 07:12:36;;;;;;;;;;;5.60;99.90;;;5.55;94.65;94752.09;10379284;28;2371;-82
2021/05/05 07:17:39;;;;;;;;;;;6.80;99.90;;;5.70;92.91;94745.94;10378019;28;2284;-82
2021/05/05 07:22:41;;;;;;;;;;;7.10;99.90;;;5.54;92.02;94741.69;10378244;28;2399;-82
2021/05/05 07:27:48;;;;;;;;;;;7.60;99.90;;;5.75;92.99;94743.28;10393343;28;2262;-83
2021/05/05 07:32:59;;;;;;;;;;;6.30;99.90;;;5.80;91.06;94729.94;10371710;28;2454;-82
2021/05/05 07:38:48;;;;;;;;;;;7.30;99.90;;;6.56;90.80;94749.53;10356780;28;2389;-82
2021/05/05 07:55:42;;;;;;;;;;;8.60;99.90;;;7.57;85.99;94748.97;10333663;28;2335;-81
2021/05/05 08:23:46;;;;;;;;;;;9.50;99.90;;;8.83;78.51;94782.00;10442325;28;2433;-82
2021/05/05 08:41:47;;;;;;;;;;;;;;;;;;;;;
2021/05/05 08:47:12;;;;;;;;;;;8.90;99.90;;;7.97;82.88;94792.50;10463176;28;2697;-82
2021/05/05 08:58:42;;;;;;;;;;;9.40;99.90;;;7.81;80.14;94789.13;10330493;28;2532;-85
2021/05/05 09:28:32;;;;;;;;;;;10.50;99.90;;;7.20;82.93;94820.84;10202174;28;2458;-86
2021/05/05 09:33:48;;;;;;;;;;;8.60;99.90;;;6.55;87.06;94828.00;10318878;28;2752;-84
2021/05/05 09:38:50;;;;;;;;;;;9.70;99.90;;;6.40;89.67;94823.53;10330140;28;2402;-83
2021/05/05 09:43:52;;;;;;;;;;;7.40;99.90;;;6.78;89.07;94830.88;10328418;28;2429;-85
2021/05/05 09:48:54;;;;;;;;;;;9.10;99.90;;;7.16;87.48;94819.78;10348725;28;2738;-85
2021/05/05 09:53:57;;;;;;;;;;;8.80;99.90;;;7.43;85.77;94825.50;10395510;28;2434;-86
2021/05/05 09:58:59;;;;;;;;;;;8.10;99.90;;;8.45;84.14;94827.41;10468770;28;1929;-84
2021/05/05 10:04:22;;;;;;;;;;;;;;;;;;;;;
2021/05/05 10:09:56;;;;;;;;;;;;;;;;;;;;;
2021/05/05 10:15:49;;;;;;;;;;;9.80;99.90;;;8.78;82.80;94833.81;10462687;28;2398;-84
2021/05/05 10:20:58;;;;;;;;;;;9.70;99.90;;;7.78;79.49;94829.84;10457393;28;2366;-83
2021/05/05 10:26:13;;;;;;;;;;;9.70;99.90;;;8.12;81.82;94843.22;10460733;28;2278;-83
2021/05/05 10:31:24;;;;;;;;;;;8.80;99.90;;;8.42;80.78;94830.69;10462687;28;2345;-83
2021/05/05 10:36:42;;;;;;;;;;;10.40;99.90;;;7.84;81.35;94862.72;10475115;28;2556;-83
2021/05/05 10:42:11;;;;;;;;;;;9.00;99.90;;;7.47;84.16;94880.06;10444495;28;2580;-84
2021/05/05 10:47:39;;;;;;;;;;;9.80;99.90;;;5.37;84.91;94923.97;10445862;28;2316;-85
2021/05/05 10:52:42;;;;;;;;;;;8.20;99.90;;;4.73;89.92;94937.50;10449681;28;2523;-84
2021/05/05 10:57:44;;;;;;;;;;;5.90;99.90;;;4.89;90.89;94952.50;10446044;28;2288;-86
2021/05/05 11:02:47;;;;;;;;;;;7.00;99.90;;;4.99;90.01;94948.31;10443088;28;2370;-82
2021/05/05 11:07:49;;;;;;;;;;;7.10;99.90;;;5.10;90.53;94950.78;10455849;28;2479;-82
2021/05/05 11:13:02;;;;;;;;;;;5.90;99.90;;;5.21;87.32;94943.63;10453474;28;2502;-84
2021/05/05 11:18:33;;;;;;;;;;;6.80;99.90;;;5.60;87.69;94943.25;10444831;28;2381;-83
2021/05/05 11:29:17;;;;;;;;;;;;;;;;;;;;;
2021/05/05 11:40:02;;;;;;;;;;;8.50;99.90;;;7.01;83.19;94939.03;10454798;28;2392;-83
2021/05/05 11:45:18;;;;;;;;;;;9.00;99.90;;;6.98;81.51;94934.22;10431240;28;2901;-85
2021/05/05 11:50:27;;;;;;;;;;;7.90;99.90;;;7.65;80.91;94936.66;10457103;28;2727;-85
2021/05/05 11:55:53;;;;;;;;;;;8.20;99.90;;;7.83;75.69;94930.69;10482530;28;2588;-84
2021/05/05 12:07:02;;;;;;;;;;;9.10;99.90;;;8.26;74.99;94922.88;10459449;28;2417;-84
2021/05/05 12:12:10;;;;;;;;;;;10.40;99.90;;;9.15;73.89;94928.81;10453406;28;2444;-85
2021/05/05 12:17:57;;;;;;;;;;;9.50;99.90;;;9.06;73.33;94931.31;10385218;28;2336;-81
2021/05/05 12:23:39;;;;;;;;;;;11.10;99.90;;;8.97;72.01;94943.75;10191414;29;2389;-82
2021/05/05 12:28:59;;;;;;;;;;;10.00;99.90;;;8.86;71.50;94926.16;10194446;29;2419;-82
2021/05/05 12:47:22;;;;;;;;;;;;;;;;;;;;;
2021/05/05 12:53:24;;;;;;;;;;;;;;;;;;;;;
2021/05/05 13:05:01;;;;;;;;;;;12.20;99.90;;;10.62;60.30;94920.66;10312682;28;2488;-82
2021/05/05 13:10:11;;;;;;;;;;;11.80;99.90;;;10.98;61.24;94909.28;10476306;28;2389;-83
2021/05/05 13:15:37;;;;;;;;;;;11.90;99.90;;;11.37;57.61;94909.59;10481753;28;2654;-84
2021/05/05 13:20:59;;;;;;;;;;;12.30;99.90;;;11.70;54.54;94922.94;10466102;28;2697;-82
2021/05/05 13:29:31;;;;;;;;;;;12.60;99.90;;;11.45;49.79;94921.59;10477866;28;2513;-83
2021/05/05 13:31:53;;;;;;;;;;;12.60;99.90;;;10.62;51.88;94938.66;10461433;28;2820;-82
2021/05/05 13:36:58;;;;;;;;;;;11.90;99.90;;;9.13;62.92;94979.25;10460139;28;2325;-84
2021/05/05 13:42:05;;;;;;;;;;;10.80;99.90;;;9.08;64.38;94961.31;10424358;28;2768;-83
2021/05/05 13:47:26;;;;;;;;;;;10.00;99.90;;;9.55;60.53;94972.38;10413531;28;2347;-82
2021/05/05 13:52:30;;;;;;;;;;;10.30;99.90;;;10.29;54.69;94962.81;10413216;28;2353;-85
2021/05/05 13:57:42;;;;;;;;;;;10.90;99.90;;;10.12;49.74;94970.56;10444014;28;2414;-83
2021/05/05 14:02:44;;;;;;;;;;;11.00;99.90;;;10.32;49.13;94966.81;10441067;28;2471;-84
2021/05/05 14:07:50;;;;;;;;;;;11.20;99.90;;;10.67;47.54;94970.84;10437152;28;2448;-83
2021/05/05 14:12:53;;;;;;;;;;;11.40;99.90;;;10.87;47.27;94953.56;10442641;28;2041;-85
2021/05/05 14:17:55;;;;;;;;;;;11.70;99.60;;;11.38;44.49;94935.41;10450612;28;2376;-82
2021/05/05 14:23:04;;;;;;;;;;;12.60;94.80;;;11.29;46.05;95015.22;10434528;28;2324;-82
2021/05/05 14:28:10;;;;;;;;;;;12.40;94.30;;;9.39;53.87;95044.94;10448261;28;2412;-83
2021/05/05 14:33:12;;;;;;;;;;;10.90;99.90;;;8.80;56.20;95058.59;10450413;28;2234;-83
2021/05/05 14:38:16;;;;;;;;;;;10.00;99.90;;;8.98;55.67;95057.94;10443790;28;2375;-83
2021/05/05 14:43:25;;;;;;;;;;;9.80;99.90;;;9.51;54.11;95070.59;10458860;28;2210;-86
2021/05/05 14:48:28;;;;;;;;;;;10.20;99.90;;;9.59;53.88;95062.72;10440695;28;2674;-81
2021/05/05 14:53:30;;;;;;;;;;;10.30;99.90;;;10.25;50.85;95043.19;10441086;28;2319;-79
2021/05/05 14:58:33;;;;;;;;;;;10.90;99.90;;;10.58;49.86;95061.28;10447119;28;2489;-83
2021/05/05 15:03:35;;;;;;;;;;;11.40;99.90;;;10.12;48.88;95043.88;10440544;28;2399;-84
2021/05/05 15:08:44;;;;;;;;;;;11.40;96.90;;;10.20;49.55;95055.84;10458218;28;2358;-85
2021/05/05 15:13:51;;;;;;;;;;;11.20;97.30;;;10.32;48.19;95048.22;10439100;28;2262;-84
2021/05/05 15:29:51;;;;;;;;;;;11.20;94.70;;;9.69;49.12;95062.63;10443829;28;2751;-85
2021/05/05 15:35:13;;;;;;;;;;;10.90;94.00;;;9.32;51.92;95090.06;10469302;28;2293;-85
2021/05/05 15:40:23;;;;;;;;;;;10.50;97.00;;;9.51;51.67;95086.69;10441324;28;2498;-83
2021/05/05 15:45:27;;;;;;;;;;;10.60;97.50;;;9.04;51.10;95088.19;10447930;28;2233;-85
2021/05/05 15:50:31;;;;;;;;;;;10.30;96.00;;;9.10;51.62;95093.22;10458265;28;2384;-84
2021/05/05 15:55:33;;;;;;;;;;;10.20;96.70;;;8.91;52.20;95086.94;10463955;28;2333;-83
2021/05/05 16:00:41;;;;;;;;;;;10.00;96.80;;;9.03;50.08;95087.34;10442487;28;2284;-85
2021/05/05 16:11:47;;;;;;;;;;;10.00;93.70;;;8.87;50.73;95105.44;10449462;28;2373;-85
2021/05/05 16:16:49;;;;;;;;;;;9.90;94.90;;;8.74;51.90;95110.63;10449328;28;3608;-86
2021/05/05 16:21:56;;;;;;;;;;;10.70;96.70;;;8.86;50.72;95121.81;10449065;28;2415;-84
2021/05/05 16:27:11;;;;;;;;;;;9.80;95.30;;;9.03;50.72;95114.16;10458800;28;2374;-86
2021/05/05 16:48:15;;;;;;;;;;;10.60;95.30;;;8.99;49.80;95142.63;10487189;28;2365;-83
2021/05/05 16:53:36;;;;;;;;;;;9.80;94.40;;;8.88;50.19;95144.56;10464626;28;2707;-84
2021/05/05 16:58:53;;;;;;;;;;;9.90;94.20;;;9.02;50.25;95131.34;10435655;28;2348;-85
2021/05/05 17:04:45;;;;;;;;;;;9.90;94.40;;;9.12;51.26;95133.16;10433759;28;2321;-84
2021/05/05 17:09:55;;;;;;;;;;;10.00;95.00;;;8.90;50.79;95142.41;10437319;28;2355;-82
2021/05/05 17:14:58;;;;;;;;;;;10.10;94.40;;;8.72;51.12;95132.34;10439989;28;3328;-82
2021/05/05 17:20:05;;;;;;;;;;;9.80;94.00;;;8.64;50.99;95127.56;10435176;28;2254;-85
2021/05/05 17:25:14;;;;;;;;;;;9.80;94.30;;;8.62;49.78;95141.25;10456864;28;1729;-85
2021/05/05 17:35:16;;;;;;;;;;;9.90;92.90;;;8.57;48.66;95137.78;10440198;28;2486;-85
2021/05/05 17:47:18;;;;;;;;;;;9.50;90.30;;;8.35;47.95;95163.06;10437302;28;2377;-86
2021/05/05 17:58:22;;;;;;;;;;;10.20;92.40;;;7.75;52.54;95178.19;10467205;28;2306;-93
2021/05/05 18:14:19;;;;;;;;;;;8.60;96.90;;;7.11;57.41;95212.66;10486712;28;1883;-88
2021/05/05 18:19:22;;;;;;;;;;;8.40;99.20;;;6.73;60.67;95223.53;10431516;28;1384;-86
2021/05/05 18:24:32;;;;;;;;;;;8.10;99.90;;;6.49;61.29;95233.88;10455654;28;2260;-86
2021/05/05 18:29:38;;;;;;;;;;;8.90;99.90;;;6.28;62.51;95247.38;10445648;28;2353;-86
2021/05/05 18:34:41;;;;;;;;;;;7.40;99.90;;;6.04;63.42;95263.78;10434829;28;2442;-84
2021/05/05 18:39:46;;;;;;;;;;;8.70;99.90;;;5.90;63.91;95252.72;10441057;28;2812;-87
2021/05/05 19:45:11;;;;;;;;;;;8.40;99.90;;;5.91;62.61;95376.28;10363937;28;1581;-88
2021/05/05 20:49:56;;;;;;;;;;;6.20;99.90;;;4.82;71.17;95391.31;10448620;28;1484;-88
2021/05/05 21:11:33;;;;;;;;;;;5.90;99.90;;;4.61;73.57;95410.75;10344683;28;1953;-87
2021/05/05 23:09:42;;;;;;;;;;;6.70;99.90;;;5.75;68.33;95388.66;10429047;28;2027;-87
2021/05/05 23:25:41;;;;;;;;;;;7.70;99.90;;;5.70;68.20;95369.91;10432963;28;2134;-89
2021/05/05 23:31:04;;;;;;;;;;;6.70;99.90;;;5.67;68.24;95365.91;10425354;28;2099;-88
